createdAt,value
2018-05-18T00:01:13.781Z,93.70
2018-05-18T00:03:41.288Z,93.70
2018-05-18T00:06:08.774Z,93.70
2018-05-18T00:08:36.277Z,93.70
2018-05-18T00:11:03.758Z,93.70
2018-05-18T00:13:32.022Z,93.70
2018-05-18T00:15:59.512Z,93.70
2018-05-18T00:18:27.009Z,93.80
2018-05-18T00:20:54.493Z,93.80
2018-05-18T00:23:21.987Z,93.80
2018-05-18T00:25:49.465Z,94.00
2018-05-18T00:28:16.961Z,93.90
2018-05-18T00:30:44.445Z,94.10
2018-05-18T00:33:12.704Z,94.30
2018-05-18T00:35:40.182Z,94.30
2018-05-18T00:38:08.425Z,94.30
2018-05-18T00:40:35.922Z,94.20
2018-05-18T00:43:04.166Z,94.30
2018-05-18T00:45:31.661Z,94.30
2018-05-18T00:47:59.150Z,94.30
2018-05-18T00:50:26.641Z,94.20
2018-05-18T00:52:54.121Z,94.30
2018-05-18T00:55:33.187Z,94.30
2018-05-18T00:58:00.668Z,94.30
2018-05-18T01:00:28.161Z,94.30
2018-05-18T01:02:55.641Z,94.10
2018-05-18T01:05:23.907Z,94.00
2018-05-18T01:07:52.158Z,93.90
2018-05-18T01:10:19.658Z,93.90
2018-05-18T01:12:47.909Z,93.90
2018-05-18T01:15:15.406Z,93.80
2018-05-18T01:17:42.883Z,93.80
2018-05-18T01:20:10.378Z,93.70
2018-05-18T01:22:37.861Z,93.70
2018-05-18T01:25:06.130Z,94.10
2018-05-18T01:27:33.610Z,94.10
2018-05-18T01:30:01.873Z,94.00
2018-05-18T01:32:30.113Z,93.80
2018-05-18T01:34:58.377Z,93.60
2018-05-18T01:37:25.860Z,93.60
2018-05-18T01:39:53.358Z,93.50
2018-05-18T01:42:21.615Z,93.40
2018-05-18T01:44:50.634Z,93.40
2018-05-18T01:47:18.137Z,93.40
2018-05-18T01:49:45.623Z,93.40
2018-05-18T01:52:13.121Z,93.40
2018-05-18T01:54:40.605Z,93.40
2018-05-18T01:57:08.101Z,93.30
2018-05-18T01:59:35.585Z,93.30
2018-05-18T02:02:03.854Z,93.20
2018-05-18T02:04:32.102Z,93.30
2018-05-18T02:06:59.596Z,93.20
2018-05-18T02:09:27.842Z,93.20
2018-05-18T02:11:55.337Z,93.10
2018-05-18T02:14:23.577Z,93.00
2018-05-18T02:16:51.074Z,93.00
2018-05-18T02:19:19.323Z,93.00
2018-05-18T02:21:47.595Z,92.60
2018-05-18T02:24:15.072Z,92.90
2018-05-18T02:26:43.350Z,92.90
2018-05-18T02:29:11.601Z,92.80
2018-05-18T02:31:39.094Z,92.80
2018-05-18T02:34:07.336Z,92.80
2018-05-18T02:36:34.837Z,92.70
2018-05-18T02:39:03.088Z,93.10
2018-05-18T02:41:30.623Z,93.00
2018-05-18T02:43:58.102Z,93.20
2018-05-18T02:46:25.602Z,93.20
2018-05-18T02:48:53.094Z,93.20
2018-05-18T02:51:20.589Z,93.10
2018-05-18T02:53:48.836Z,93.30
2018-05-18T02:56:16.337Z,93.20
2018-05-18T02:58:44.577Z,93.50
2018-05-18T03:01:12.090Z,93.40
2018-05-18T03:03:39.581Z,93.50
2018-05-18T03:06:07.835Z,93.40
2018-05-18T03:08:35.333Z,93.40
2018-05-18T03:11:02.811Z,93.70
2018-05-18T03:13:30.309Z,93.60
2018-05-18T03:15:57.797Z,93.80
2018-05-18T03:18:25.298Z,93.80
2018-05-18T03:20:53.606Z,93.80
2018-05-18T03:23:21.133Z,93.80
2018-05-18T03:25:48.631Z,93.80
2018-05-18T03:28:16.133Z,94.00
2018-05-18T03:30:43.615Z,94.10
2018-05-18T03:33:11.880Z,94.30
2018-05-18T03:35:39.361Z,94.30
2018-05-18T03:38:07.627Z,94.40
2018-05-18T03:40:35.109Z,94.30
2018-05-18T03:43:02.606Z,94.40
2018-05-18T03:45:30.087Z,94.40
2018-05-18T03:47:57.590Z,94.40
2018-05-18T03:50:25.071Z,94.80
2018-05-18T03:52:52.584Z,94.40
2018-05-18T03:55:20.827Z,94.20
2018-05-18T03:57:48.325Z,94.20
2018-05-18T04:00:16.569Z,94.10
2018-05-18T04:02:55.881Z,94.10
2018-05-18T04:05:35.025Z,94.30
2018-05-18T04:08:14.994Z,94.40
2018-05-18T04:10:42.473Z,94.20
2018-05-18T04:13:10.744Z,94.20
2018-05-18T04:15:38.229Z,94.20
2018-05-18T04:18:06.503Z,94.20
2018-05-18T04:20:33.991Z,94.20
2018-05-18T04:23:01.501Z,94.20
2018-05-18T04:25:28.984Z,94.30
2018-05-18T04:27:58.176Z,94.60
2018-05-18T04:30:26.475Z,94.50
2018-05-18T04:32:53.917Z,94.50
2018-05-18T04:35:22.181Z,94.80
2018-05-18T04:37:50.431Z,95.10
2018-05-18T04:40:18.770Z,94.80
2018-05-18T04:42:46.245Z,94.80
2018-05-18T04:45:13.761Z,94.80
2018-05-18T04:47:42.021Z,94.70
2018-05-18T04:50:09.534Z,94.60
2018-05-18T04:52:37.014Z,94.60
2018-05-18T04:55:04.505Z,94.50
2018-05-18T04:57:32.758Z,94.70
2018-05-18T05:00:00.264Z,94.60
2018-05-18T05:02:27.741Z,94.50
2018-05-18T05:04:55.240Z,94.50
2018-05-18T05:07:22.728Z,94.40
2018-05-18T05:09:50.985Z,94.30
2018-05-18T05:12:18.465Z,94.30
2018-05-18T05:14:46.729Z,94.00
2018-05-18T05:17:14.206Z,93.90
2018-05-18T05:19:42.472Z,93.60
2018-05-18T05:22:10.713Z,93.60
2018-05-18T05:24:38.209Z,93.50
2018-05-18T05:27:06.464Z,93.10
2018-05-18T05:29:33.965Z,93.00
2018-05-18T05:32:02.215Z,92.00
2018-05-18T05:34:30.485Z,91.80
2018-05-18T05:36:57.964Z,91.80
2018-05-18T05:39:26.238Z,90.40
2018-05-18T05:41:54.490Z,90.30
2018-05-18T05:44:22.003Z,90.20
2018-05-18T05:46:49.491Z,90.20
2018-05-18T05:49:17.009Z,89.70
2018-05-18T05:51:44.510Z,88.60
2018-05-18T05:54:11.997Z,87.80
2018-05-18T05:56:39.498Z,85.50
2018-05-18T05:59:06.982Z,84.00
2018-05-18T06:01:34.481Z,82.60
2018-05-18T06:04:02.742Z,79.70
2018-05-18T06:06:30.240Z,79.60
2018-05-18T06:08:57.725Z,80.10
2018-05-18T06:11:25.236Z,80.00
2018-05-18T06:13:54.235Z,79.00
2018-05-18T06:16:22.502Z,75.90
2018-05-18T06:18:49.981Z,75.80
2018-05-18T06:21:18.245Z,76.50
2018-05-18T06:23:45.729Z,76.40
2018-05-18T06:26:13.997Z,76.80
2018-05-18T06:28:42.278Z,73.50
2018-05-18T06:31:09.797Z,73.40
2018-05-18T06:33:37.276Z,74.80
2018-05-18T06:36:05.546Z,73.70
2018-05-18T06:38:33.034Z,73.60
2018-05-18T06:41:01.300Z,75.20
2018-05-18T06:43:29.557Z,75.10
2018-05-18T06:45:57.061Z,74.20
2018-05-18T06:48:24.553Z,74.10
2018-05-18T06:50:52.052Z,75.10
2018-05-18T06:53:20.309Z,74.80
2018-05-18T06:55:47.802Z,74.60
2018-05-18T06:58:15.285Z,73.40
2018-05-18T07:00:42.785Z,73.70
2018-05-18T07:03:10.269Z,73.10
2018-05-18T07:05:38.521Z,74.10
2018-05-18T07:08:06.021Z,73.90
2018-05-18T07:10:33.521Z,72.20
2018-05-18T07:13:01.801Z,69.60
2018-05-18T07:15:29.282Z,69.50
2018-05-18T07:17:56.777Z,68.50
2018-05-18T07:20:24.275Z,69.80
2018-05-18T07:22:51.782Z,69.80
2018-05-18T07:25:20.035Z,69.00
2018-05-18T07:27:47.545Z,69.00
2018-05-18T07:30:15.029Z,69.50
2018-05-18T07:32:42.533Z,69.00
2018-05-18T07:35:10.838Z,69.20
2018-05-18T07:37:38.344Z,69.20
2018-05-18T07:40:05.830Z,68.60
2018-05-18T07:42:34.097Z,67.20
2018-05-18T07:45:02.346Z,68.20
2018-05-18T07:47:29.842Z,68.10
2018-05-18T07:49:58.101Z,67.70
2018-05-18T07:52:25.598Z,67.60
2018-05-18T07:54:53.088Z,65.70
2018-05-18T07:57:20.590Z,66.00
2018-05-18T07:59:48.841Z,66.80
2018-05-18T08:02:16.340Z,66.60
2018-05-18T08:04:44.590Z,65.30
2018-05-18T08:07:12.097Z,65.20
2018-05-18T08:09:39.600Z,63.60
2018-05-18T08:12:07.097Z,61.50
2018-05-18T08:14:35.345Z,60.90
2018-05-18T08:17:02.859Z,60.80
2018-05-18T08:19:30.349Z,61.00
2018-05-18T08:21:57.850Z,59.90
2018-05-18T08:24:26.114Z,61.50
2018-05-18T08:27:06.184Z,60.00
2018-05-18T08:29:36.332Z,60.00
2018-05-18T08:32:03.845Z,62.00
2018-05-18T08:34:32.833Z,61.60
2018-05-18T08:37:00.319Z,61.40
2018-05-18T08:39:28.584Z,60.60
2018-05-18T08:41:56.836Z,62.50
2018-05-18T08:44:24.355Z,62.40
2018-05-18T08:46:51.851Z,61.20
2018-05-18T08:49:19.374Z,60.30
2018-05-18T08:51:46.866Z,60.60
2018-05-18T08:54:14.365Z,58.90
2018-05-18T08:56:41.881Z,58.80
2018-05-18T08:59:09.381Z,58.80
2018-05-18T09:01:37.767Z,59.50
2018-05-18T09:04:05.285Z,59.40
2018-05-18T09:06:32.773Z,59.20
2018-05-18T09:09:01.089Z,58.80
2018-05-18T09:11:28.580Z,58.80
2018-05-18T09:13:56.082Z,59.10
2018-05-18T09:16:24.329Z,59.60
2018-05-18T09:18:52.202Z,59.50
2018-05-18T09:21:20.463Z,59.30
2018-05-18T09:23:47.976Z,59.20
2018-05-18T09:26:15.465Z,59.20
2018-05-18T09:28:42.967Z,60.20
2018-05-18T09:31:11.222Z,58.60
2018-05-18T09:33:38.722Z,58.60
2018-05-18T09:36:06.202Z,59.10
2018-05-18T09:38:33.714Z,57.90
2018-05-18T09:41:01.966Z,57.50
2018-05-18T09:43:29.470Z,57.50
2018-05-18T09:45:56.965Z,58.30
2018-05-18T09:48:25.245Z,59.00
2018-05-18T09:50:52.734Z,59.00
2018-05-18T09:53:20.239Z,59.20
2018-05-18T09:55:47.720Z,59.00
2018-05-18T09:58:15.219Z,58.30
2018-05-18T10:00:43.532Z,59.30
2018-05-18T10:03:10.980Z,59.20
2018-05-18T10:05:38.469Z,58.50
2018-05-18T10:08:05.961Z,59.00
2018-05-18T10:10:33.461Z,56.60
2018-05-18T10:13:00.959Z,59.00
2018-05-18T10:15:28.461Z,58.00
2018-05-18T10:17:56.725Z,56.50
2018-05-18T10:20:24.999Z,55.90
2018-05-18T10:22:53.269Z,54.70
2018-05-18T10:25:26.126Z,54.70
2018-05-18T10:27:53.623Z,55.00
2018-05-18T10:30:28.645Z,55.90
2018-05-18T10:32:56.220Z,55.80
2018-05-18T10:35:23.657Z,54.90
2018-05-18T10:37:51.143Z,56.10
2018-05-18T10:40:19.450Z,56.00
2018-05-18T10:42:46.929Z,55.90
2018-05-18T10:45:14.442Z,55.00
2018-05-18T10:47:42.684Z,55.80
2018-05-18T10:50:10.205Z,55.90
2018-05-18T10:52:37.685Z,54.80
2018-05-18T10:55:05.181Z,57.80
2018-05-18T10:57:32.670Z,55.60
2018-05-18T11:00:00.932Z,53.50
2018-05-18T11:02:29.205Z,55.20
2018-05-18T11:04:57.477Z,54.00
2018-05-18T11:07:24.953Z,54.00
2018-05-18T11:09:53.222Z,53.80
2018-05-18T11:12:21.507Z,54.10
2018-05-18T11:14:49.012Z,53.90
2018-05-18T11:17:16.498Z,55.30
2018-05-18T11:19:43.984Z,54.70
2018-05-18T11:22:12.253Z,52.80
2018-05-18T11:24:40.510Z,54.00
2018-05-18T11:27:08.135Z,54.00
2018-05-18T11:29:35.621Z,55.30
2018-05-18T11:32:03.127Z,53.90
2018-05-18T11:34:31.389Z,53.40
2018-05-18T11:36:59.659Z,52.80
2018-05-18T11:39:27.935Z,52.80
2018-05-18T11:41:55.440Z,52.80
2018-05-18T11:44:22.921Z,53.40
2018-05-18T11:46:50.426Z,52.50
2018-05-18T11:49:18.677Z,53.00
2018-05-18T11:51:47.172Z,53.00
2018-05-18T11:54:15.429Z,51.40
2018-05-18T11:56:42.935Z,51.30
2018-05-18T11:59:11.189Z,54.60
2018-05-18T12:01:39.456Z,52.90
2018-05-18T12:04:06.943Z,52.90
2018-05-18T12:06:35.212Z,52.40
2018-05-18T12:09:03.457Z,51.90
2018-05-18T12:11:30.953Z,51.80
2018-05-18T12:13:59.258Z,53.30
2018-05-18T12:16:26.718Z,53.30
2018-05-18T12:18:54.208Z,51.30
2018-05-18T12:21:22.474Z,50.70
2018-05-18T12:23:49.959Z,50.70
2018-05-18T12:26:17.479Z,51.50
2018-05-18T12:28:44.966Z,51.60
2018-05-18T12:31:12.474Z,51.80
2018-05-18T12:33:39.957Z,52.00
2018-05-18T12:36:07.441Z,50.60
2018-05-18T12:38:34.960Z,51.00
2018-05-18T12:41:02.449Z,51.70
2018-05-18T12:43:29.944Z,51.50
2018-05-18T12:45:57.464Z,52.20
2018-05-18T12:48:24.973Z,51.70
2018-05-18T12:50:53.224Z,50.30
2018-05-18T12:53:21.505Z,50.20
2018-05-18T12:55:48.991Z,50.50
2018-05-18T12:58:17.259Z,50.00
2018-05-18T13:00:45.513Z,49.80
2018-05-18T13:03:13.009Z,49.70
2018-05-18T13:05:41.256Z,49.30
2018-05-18T13:08:08.870Z,49.40
2018-05-18T13:10:36.250Z,49.10
2018-05-18T13:13:03.749Z,49.40
2018-05-18T13:15:31.996Z,49.30
2018-05-18T13:17:59.493Z,48.70
2018-05-18T13:20:27.733Z,48.80
2018-05-18T13:22:55.225Z,48.20
2018-05-18T13:25:23.472Z,48.60
2018-05-18T13:27:51.736Z,46.40
2018-05-18T13:30:19.215Z,46.40
2018-05-18T13:32:46.744Z,45.60
2018-05-18T13:35:14.225Z,48.10
2018-05-18T13:37:41.718Z,48.60
2018-05-18T13:40:09.961Z,48.00
2018-05-18T13:42:37.469Z,48.00
2018-05-18T13:45:05.736Z,48.50
2018-05-18T13:47:33.977Z,48.50
2018-05-18T13:50:01.469Z,48.50
2018-05-18T13:52:29.710Z,47.50
2018-05-18T13:54:57.420Z,47.40
2018-05-18T13:57:24.929Z,46.10
2018-05-18T13:59:52.425Z,46.00
2018-05-18T14:02:20.679Z,44.80
2018-05-18T14:04:48.181Z,44.70
2018-05-18T14:07:15.661Z,46.20
2018-05-18T14:09:43.268Z,46.50
2018-05-18T14:12:10.749Z,46.80
2018-05-18T14:14:39.027Z,45.20
2018-05-18T14:17:07.277Z,48.90
2018-05-18T14:19:34.774Z,48.90
2018-05-18T14:22:02.252Z,49.00
2018-05-18T14:24:29.753Z,48.10
2018-05-18T14:26:57.233Z,48.90
2018-05-18T14:29:25.501Z,48.50
2018-05-18T14:31:53.862Z,49.00
2018-05-18T14:34:22.054Z,49.60
2018-05-18T14:36:49.537Z,49.60
2018-05-18T14:39:17.800Z,47.50
2018-05-18T14:41:46.054Z,49.30
2018-05-18T14:44:13.548Z,49.30
2018-05-18T14:46:41.806Z,49.40
2018-05-18T14:49:09.311Z,49.40
2018-05-18T14:51:36.799Z,47.60
2018-05-18T14:54:04.288Z,49.00
2018-05-18T14:56:32.553Z,50.80
2018-05-18T14:59:00.046Z,50.00
2018-05-18T15:01:28.318Z,50.80
2018-05-18T15:03:55.797Z,50.70
2018-05-18T15:06:23.294Z,50.90
2018-05-18T15:08:50.788Z,51.80
2018-05-18T15:11:19.053Z,50.20
2018-05-18T15:13:47.305Z,49.80
2018-05-18T15:16:14.859Z,49.80
2018-05-18T15:18:42.306Z,49.10
2018-05-18T15:21:09.810Z,50.20
2018-05-18T15:23:38.057Z,50.20
2018-05-18T15:26:05.552Z,50.10
2018-05-18T15:28:33.801Z,52.70
2018-05-18T15:31:01.301Z,52.60
2018-05-18T15:33:29.989Z,51.50
2018-05-18T15:35:58.281Z,50.30
2018-05-18T15:38:25.766Z,50.30
2018-05-18T15:40:53.267Z,50.40
2018-05-18T15:43:21.522Z,50.70
2018-05-18T15:45:49.018Z,50.60
2018-05-18T15:48:17.260Z,50.40
2018-05-18T15:50:44.774Z,50.30
2018-05-18T15:53:12.334Z,49.90
2018-05-18T15:55:39.846Z,50.60
2018-05-18T15:58:07.331Z,52.30
2018-05-18T16:00:36.442Z,51.60
2018-05-18T16:03:03.921Z,51.70
2018-05-18T16:05:31.402Z,51.40
2018-05-18T16:07:58.912Z,51.00
2018-05-18T16:10:26.397Z,51.30
2018-05-18T16:12:53.949Z,52.00
2018-05-18T16:15:22.175Z,51.00
2018-05-18T16:17:50.469Z,51.80
2018-05-18T16:20:18.717Z,51.20
2018-05-18T16:22:46.212Z,51.20
2018-05-18T16:25:14.473Z,51.30
2018-05-18T16:27:41.988Z,51.30
2018-05-18T16:30:09.473Z,51.10
2018-05-18T16:32:36.970Z,50.10
2018-05-18T16:35:05.241Z,50.00
2018-05-18T16:37:33.506Z,50.20
2018-05-18T16:40:01.021Z,50.20
2018-05-18T16:42:29.255Z,49.30
2018-05-18T16:44:57.512Z,49.60
2018-05-18T16:47:25.005Z,49.50
2018-05-18T16:49:52.524Z,48.50
2018-05-18T16:52:20.952Z,48.10
2018-05-18T16:54:48.445Z,48.40
2018-05-18T16:57:15.945Z,48.80
2018-05-18T16:59:44.197Z,47.80
2018-05-18T17:02:11.700Z,47.80
2018-05-18T17:04:39.189Z,47.90
2018-05-18T17:07:06.689Z,48.70
2018-05-18T17:09:34.933Z,49.20
2018-05-18T17:12:02.428Z,49.20
2018-05-18T17:14:30.690Z,48.90
2018-05-18T17:16:58.217Z,48.90
2018-05-18T17:19:25.728Z,49.10
2018-05-18T17:21:53.201Z,48.50
2018-05-18T17:24:20.689Z,49.00
2018-05-18T17:26:48.198Z,48.80
2018-05-18T17:29:16.474Z,48.20
2018-05-18T17:31:44.720Z,48.00
2018-05-18T17:34:12.214Z,48.00
2018-05-18T17:36:40.452Z,47.40
2018-05-18T17:39:07.951Z,47.40
2018-05-18T17:41:36.206Z,47.60
2018-05-18T17:44:03.697Z,47.60
2018-05-18T17:46:31.942Z,46.80
2018-05-18T17:48:59.444Z,46.80
2018-05-18T17:51:26.941Z,46.10
2018-05-18T17:53:54.449Z,46.70
2018-05-18T17:56:22.694Z,47.20
2018-05-18T17:58:50.212Z,47.10
2018-05-18T18:01:17.792Z,46.50
2018-05-18T18:03:45.308Z,47.50
2018-05-18T18:06:12.893Z,47.70
2018-05-18T18:08:40.501Z,48.60
2018-05-18T18:11:08.029Z,48.70
2018-05-18T18:13:35.540Z,48.00
2018-05-18T18:16:03.043Z,48.40
2018-05-18T18:18:30.616Z,48.10
2018-05-18T18:20:58.090Z,48.70
2018-05-18T18:23:25.621Z,49.40
2018-05-18T18:25:53.106Z,50.30
2018-05-18T18:28:20.622Z,51.10
2018-05-18T18:30:48.110Z,51.90
2018-05-18T18:33:15.605Z,52.70
2018-05-18T18:35:43.085Z,53.50
2018-05-18T18:38:11.358Z,54.40
2018-05-18T18:40:39.622Z,55.00
2018-05-18T18:43:07.895Z,55.20
2018-05-18T18:45:35.418Z,55.10
2018-05-18T18:48:02.910Z,55.40
2018-05-18T18:50:30.416Z,55.80
2018-05-18T18:52:57.899Z,55.80
2018-05-18T18:55:25.395Z,56.10
2018-05-18T18:57:53.650Z,56.80
2018-05-18T19:00:21.149Z,56.80
2018-05-18T19:02:48.631Z,56.90
2018-05-18T19:05:16.137Z,57.00
2018-05-18T19:07:43.623Z,57.20
2018-05-18T19:10:11.895Z,57.60
2018-05-18T19:12:40.144Z,57.90
2018-05-18T19:15:07.646Z,57.80
2018-05-18T19:17:35.898Z,58.30
2018-05-18T19:20:04.157Z,58.50
2018-05-18T19:22:31.645Z,58.50
2018-05-18T19:24:59.917Z,59.20
2018-05-18T19:27:28.166Z,59.90
2018-05-18T19:29:55.669Z,59.60
2018-05-18T19:32:23.171Z,60.20
2018-05-18T19:34:50.677Z,61.10
2018-05-18T19:37:18.929Z,62.20
2018-05-18T19:39:46.433Z,62.20
2018-05-18T19:42:13.922Z,62.70
2018-05-18T19:44:41.431Z,62.90
2018-05-18T19:47:09.679Z,64.00
2018-05-18T19:49:37.177Z,63.80
2018-05-18T19:52:04.663Z,64.50
2018-05-18T19:54:32.165Z,64.70
2018-05-18T19:56:59.661Z,65.00
2018-05-18T19:59:27.170Z,65.30
2018-05-18T20:01:54.654Z,65.70
2018-05-18T20:04:22.907Z,66.20
2018-05-18T20:06:50.411Z,66.00
2018-05-18T20:09:18.659Z,66.50
2018-05-18T20:11:46.929Z,67.20
2018-05-18T20:14:14.416Z,67.00
2018-05-18T20:16:42.686Z,68.10
2018-05-18T20:19:10.937Z,68.40
2018-05-18T20:21:38.438Z,68.30
2018-05-18T20:24:05.921Z,68.80
2018-05-18T20:26:33.417Z,69.20
2018-05-18T20:29:00.903Z,69.50
2018-05-18T20:31:29.166Z,70.20
2018-05-18T20:33:57.417Z,70.50
2018-05-18T20:36:24.922Z,70.50
2018-05-18T20:38:53.177Z,71.30
2018-05-18T20:41:20.717Z,71.30
2018-05-18T20:43:48.208Z,71.90
2018-05-18T20:46:16.477Z,73.00
2018-05-18T20:48:43.959Z,73.00
2018-05-18T20:51:12.218Z,74.20
2018-05-18T20:53:40.470Z,74.50
2018-05-18T20:56:07.975Z,74.40
2018-05-18T20:58:35.489Z,75.00
2018-05-18T21:01:02.979Z,75.30
2018-05-18T21:03:31.324Z,76.10
2018-05-18T21:05:58.748Z,76.10
2018-05-18T21:08:26.236Z,76.10
2018-05-18T21:10:53.737Z,77.00
2018-05-18T21:13:21.986Z,77.90
2018-05-18T21:15:49.510Z,78.60
2018-05-18T21:18:16.997Z,78.30
2018-05-18T21:20:44.482Z,78.60
2018-05-18T21:23:12.753Z,79.30
2018-05-18T21:25:40.497Z,79.30
2018-05-18T21:28:08.006Z,79.70
2018-05-18T21:30:36.343Z,80.50
2018-05-18T21:33:04.541Z,80.60
2018-05-18T21:35:32.788Z,81.00
2018-05-18T21:38:00.296Z,80.80
2018-05-18T21:40:27.796Z,81.20
2018-05-18T21:42:55.309Z,81.70
2018-05-18T21:45:23.568Z,82.00
2018-05-18T21:47:51.209Z,82.00
2018-05-18T21:50:18.697Z,82.90
2018-05-18T21:52:46.977Z,82.90
2018-05-18T21:55:15.229Z,83.30
2018-05-18T21:57:42.739Z,83.10
2018-05-18T22:00:10.222Z,83.20
2018-05-18T22:02:37.727Z,83.60
2018-05-18T22:05:05.987Z,84.20
2018-05-18T22:07:33.489Z,84.20
2018-05-18T22:10:00.975Z,84.10
2018-05-18T22:12:28.477Z,84.30
2018-05-18T22:14:56.735Z,84.60
2018-05-18T22:17:24.241Z,84.50
2018-05-18T22:19:51.730Z,85.10
2018-05-18T22:22:19.232Z,85.30
2018-05-18T22:24:47.490Z,85.90
2018-05-18T22:27:14.990Z,85.80
2018-05-18T22:29:43.242Z,86.30
2018-05-18T22:32:10.747Z,86.10
2018-05-18T22:34:38.226Z,86.90
2018-05-18T22:37:05.727Z,86.80
2018-05-18T22:39:33.982Z,86.80
2018-05-18T22:42:01.488Z,86.70
2018-05-18T22:44:28.988Z,87.10
2018-05-18T22:46:56.499Z,86.90
2018-05-18T22:49:24.749Z,87.00
2018-05-18T22:51:52.229Z,87.00
2018-05-18T22:54:20.493Z,87.50
2018-05-18T22:56:48.749Z,87.60
2018-05-18T22:59:16.253Z,87.60
2018-05-18T23:01:44.497Z,88.10
2018-05-18T23:04:11.993Z,88.10
2018-05-18T23:06:40.254Z,88.60
2018-05-18T23:09:07.761Z,88.60
2018-05-18T23:11:35.247Z,89.10
2018-05-18T23:14:02.747Z,89.00
2018-05-18T23:16:30.990Z,89.90
2018-05-18T23:18:58.494Z,89.70
2018-05-18T23:21:25.977Z,90.00
2018-05-18T23:23:53.474Z,90.20
2018-05-18T23:26:20.953Z,90.30
2018-05-18T23:28:49.222Z,90.60
2018-05-18T23:31:17.476Z,90.60
2018-05-18T23:33:44.973Z,90.50
2018-05-18T23:36:12.462Z,90.60
2018-05-18T23:38:39.969Z,90.60
2018-05-18T23:41:08.217Z,90.70
2018-05-18T23:43:35.725Z,91.20
2018-05-18T23:46:03.971Z,91.30
2018-05-18T23:48:31.460Z,91.30
2018-05-18T23:50:59.708Z,90.90
2018-05-18T23:53:27.201Z,91.40
2018-05-18T23:55:54.682Z,91.50
2018-05-18T23:58:22.180Z,91.70
